Time;durP1;ratioP1;P1;durP2;ratioP2;P2;SDS_P1;SDS_P2;PMS_P1;PMS_P2;Temp;Humidity;BMP_temperature;BMP_pressure;BME280_temperature;BME280_humidity;BME280_pressure;Samples;Min_cycle;Max_cycle;Signal;HPM_P1;HPM_P2
2021/04/06 00:02:14;;;;;;;4.57;1.10;;;4.10;72.30;;;;;;4974080;28;20102;-94
2021/04/06 00:04:43;;;;;;;2.42;0.70;;;4.10;72.40;;;;;;4972768;28;20019;-93
2021/04/06 00:07:13;;;;;;;5.82;1.50;;;4.00;73.00;;;;;;4957796;28;20054;-92
2021/04/06 00:09:40;;;;;;;3.88;1.42;;;4.00;72.90;;;;;;4968407;28;20122;-93
2021/04/06 00:12:08;;;;;;;2.33;0.98;;;3.80;73.90;;;;;;4973739;28;20038;-92
2021/04/06 00:14:36;;;;;;;6.47;1.70;;;3.60;74.40;;;;;;4973557;28;20027;-93
2021/04/06 00:17:05;;;;;;;5.05;1.63;;;3.60;75.20;;;;;;4973586;28;20024;-93
2021/04/06 00:19:33;;;;;;;5.80;1.45;;;3.50;75.80;;;;;;4973504;28;20493;-94
2021/04/06 00:22:01;;;;;;;4.10;1.45;;;3.50;76.00;;;;;;4954868;29;20024;-95
2021/04/06 00:24:30;;;;;;;6.82;1.50;;;3.50;76.10;;;;;;4961584;28;20026;-94
2021/04/06 00:27:03;;;;;;;5.90;1.42;;;3.50;76.20;;;;;;4974168;28;20034;-94
2021/04/06 00:29:34;;;;;;;4.80;1.20;;;3.50;76.20;;;;;;4977330;28;20472;-94
2021/04/06 00:32:01;;;;;;;5.03;1.35;;;3.40;76.40;;;;;;4963795;28;20027;-93
2021/04/06 00:34:30;;;;;;;5.40;1.33;;;3.40;76.40;;;;;;4958598;28;20046;-93
2021/04/06 00:36:57;;;;;;;5.65;1.30;;;3.40;76.40;;;;;;4959439;28;20138;-93
2021/04/06 00:39:35;;;;;;;4.30;1.00;;;3.50;76.40;;;;;;4958429;29;20059;-93
2021/04/06 00:42:05;;;;;;;5.60;1.10;;;3.50;76.30;;;;;;4977266;28;20023;-93
2021/04/06 00:44:33;;;;;;;6.93;1.20;;;3.50;76.20;;;;;;4977561;28;20054;-94
2021/04/06 00:47:00;;;;;;;3.22;1.00;;;3.50;76.20;;;;;;4958579;28;20126;-93
2021/04/06 00:49:29;;;;;;;11.75;1.40;;;3.50;76.10;;;;;;4958337;28;20102;-93
2021/04/06 00:51:54;;;;;;;3.67;1.10;;;3.50;76.10;;;;;;4962630;28;20154;-93
2021/04/06 00:54:22;;;;;;;5.05;1.40;;;3.60;76.20;;;;;;4960668;28;20126;-92
2021/04/06 00:56:47;;;;;;;3.63;1.10;;;3.60;76.10;;;;;;4962288;28;20033;-92
2021/04/06 00:59:18;;;;;;;3.63;1.00;;;3.60;76.10;;;;;;4976127;28;20478;-92
2021/04/06 01:01:46;;;;;;;4.85;1.40;;;3.70;76.00;;;;;;4970806;28;20086;-92
2021/04/06 01:04:17;;;;;;;3.28;1.05;;;3.70;75.90;;;;;;4971980;28;20062;-92
2021/04/06 01:06:56;;;;;;;6.55;1.63;;;3.70;75.90;;;;;;4962591;28;20023;-91
2021/04/06 01:09:46;;;;;;;9.80;2.30;;;3.70;76.00;;;;;;4964449;28;20027;-91
2021/04/06 01:12:17;;;;;;;9.35;1.92;;;3.70;76.40;;;;;;4956657;28;20027;-92
2021/04/06 01:14:45;;;;;;;5.40;1.52;;;3.60;76.60;;;;;;4971458;28;20031;-93
2021/04/06 01:17:16;;;;;;;7.03;2.22;;;3.60;76.70;;;;;;4958054;28;20031;-93
2021/04/06 01:19:42;;;;;;;8.63;2.22;;;3.60;76.70;;;;;;4958895;28;20011;-93
2021/04/06 01:22:14;;;;;;;6.30;1.63;;;3.60;76.80;;;;;;4958064;28;20031;-93
2021/04/06 01:24:40;;;;;;;6.28;1.60;;;3.60;77.60;;;;;;4971329;28;20083;-91
2021/04/06 01:27:12;;;;;;;8.85;1.75;;;3.60;76.90;;;;;;4965598;28;20039;-92
2021/04/06 01:29:39;;;;;;;4.05;1.40;;;3.60;76.80;;;;;;4957499;29;20516;-91
2021/04/06 01:32:05;;;;;;;5.85;1.48;;;3.60;76.70;;;;;;4956867;28;20046;-92
2021/04/06 01:34:31;;;;;;;6.68;1.65;;;3.60;76.60;;;;;;4957000;28;20050;-91
2021/04/06 01:36:57;;;;;;;8.05;1.55;;;3.60;76.60;;;;;;4958314;28;20546;-93
2021/04/06 01:39:30;;;;;;;4.53;1.80;;;3.60;76.60;;;;;;4954891;28;20390;-92
2021/04/06 01:42:06;;;;;;;9.55;2.25;;;3.70;76.60;;;;;;4959011;28;20046;-92
2021/04/06 01:44:35;;;;;;;10.20;1.60;;;3.70;76.50;;;;;;4956096;28;20031;-93
2021/04/06 01:47:02;;;;;;;8.80;2.00;;;3.60;77.10;;;;;;4975756;28;20050;-93
2021/04/06 01:49:28;;;;;;;9.30;1.95;;;3.60;76.50;;;;;;4976377;28;20050;-92
2021/04/06 01:51:56;;;;;;;9.55;2.20;;;3.60;76.60;;;;;;4975122;28;20023;-93
2021/04/06 01:54:21;;;;;;;11.63;2.40;;;3.60;76.60;;;;;;4969074;28;20565;-92
2021/04/06 01:56:53;;;;;;;11.13;2.03;;;3.60;76.70;;;;;;4971693;28;20023;-92
2021/04/06 01:59:36;;;;;;;10.70;2.15;;;3.60;76.70;;;;;;4973789;28;20034;-92
2021/04/06 02:02:03;;;;;;;5.60;1.45;;;3.60;76.60;;;;;;4974953;28;20033;-92
2021/04/06 02:04:29;;;;;;;5.72;1.95;;;3.60;76.60;;;;;;4974396;28;20034;-89
2021/04/06 02:06:58;;;;;;;7.15;1.80;;;3.60;76.50;;;;;;4973964;28;20038;-90
2021/04/06 02:09:24;;;;;;;7.63;1.70;;;3.60;76.50;;;;;;4975599;28;20077;-90
2021/04/06 02:11:50;;;;;;;5.93;1.50;;;3.60;76.40;;;;;;4973785;28;20027;-91
2021/04/06 02:14:18;;;;;;;8.60;1.85;;;3.60;76.30;;;;;;4973994;28;20090;-90
2021/04/06 02:16:53;;;;;;;8.57;1.95;;;3.70;76.30;;;;;;4973357;28;20117;-91
2021/04/06 02:19:27;;;;;;;10.00;1.90;;;3.70;76.30;;;;;;4972762;28;20090;-92
2021/04/06 02:21:56;;;;;;;9.55;2.20;;;3.70;76.20;;;;;;4973312;28;20029;-94
2021/04/06 02:24:48;;;;;;;9.27;2.03;;;3.60;76.20;;;;;;4970118;28;20041;-93
2021/04/06 02:27:17;;;;;;;7.05;1.73;;;3.60;76.20;;;;;;4955264;28;20064;-92
2021/04/06 02:29:45;;;;;;;7.25;1.88;;;3.60;76.20;;;;;;4957878;28;20066;-93
2021/04/06 02:32:30;;;;;;;13.93;2.22;;;3.50;76.30;;;;;;4956821;29;20031;-91
2021/04/06 02:34:58;;;;;;;6.78;1.90;;;3.50;76.40;;;;;;4973594;28;20095;-92
2021/04/06 02:37:54;;;;;;;8.68;1.67;;;3.40;76.30;;;;;;4962769;28;20034;-92
2021/04/06 02:40:20;;;;;;;8.90;2.13;;;3.50;76.30;;;;;;4952549;28;20040;-91
2021/04/06 02:42:48;;;;;;;4.55;1.40;;;3.50;76.20;;;;;;4975310;28;20029;-93
2021/04/06 02:45:20;;;;;;;9.25;2.28;;;3.50;76.80;;;;;;4974891;28;20023;-93
2021/04/06 02:47:53;;;;;;;6.97;1.55;;;3.40;76.10;;;;;;4962154;28;20102;-93
2021/04/06 02:50:26;;;;;;;8.25;1.63;;;3.40;76.10;;;;;;4959472;28;20099;-92
2021/04/06 02:52:53;;;;;;;11.27;2.15;;;3.40;76.10;;;;;;4969597;28;20037;-93
2021/04/06 02:55:20;;;;;;;9.98;2.22;;;3.40;76.00;;;;;;4969770;28;20035;-92
2021/04/06 02:57:51;;;;;;;11.07;2.25;;;3.30;75.70;;;;;;4957187;28;20359;-91
2021/04/06 03:00:28;;;;;;;7.57;2.10;;;3.30;75.60;;;;;;4974162;28;20134;-91
2021/04/06 03:02:59;;;;;;;7.78;2.20;;;3.30;75.50;;;;;;4955943;29;20027;-91
2021/04/06 03:05:31;;;;;;;4.90;1.60;;;3.30;75.30;;;;;;4962861;28;20081;-92
2021/04/06 03:07:57;;;;;;;7.30;1.83;;;3.30;75.10;;;;;;4957505;29;20027;-92
2021/04/06 03:10:24;;;;;;;9.77;1.83;;;3.30;75.10;;;;;;4962376;28;20030;-92
2021/04/06 03:12:50;;;;;;;4.88;1.30;;;3.30;75.00;;;;;;4981945;28;20504;-91
2021/04/06 03:15:27;;;;;;;5.45;1.30;;;3.30;75.10;;;;;;4979436;28;20035;-93
2021/04/06 03:17:55;;;;;;;4.43;1.10;;;3.20;75.50;;;;;;4982661;28;20505;-92
2021/04/06 03:20:22;;;;;;;4.22;1.05;;;3.10;75.70;;;;;;4979969;28;20019;-92
2021/04/06 03:22:48;;;;;;;5.05;1.05;;;3.10;75.30;;;;;;4969282;28;20018;-94
2021/04/06 03:25:15;;;;;;;4.43;1.20;;;3.10;75.90;;;;;;4971903;28;20107;-93
2021/04/06 03:27:45;;;;;;;5.68;1.30;;;3.20;76.00;;;;;;4956208;29;20026;-96
2021/04/06 03:30:12;;;;;;;3.33;1.20;;;3.00;76.10;;;;;;4960027;28;20481;-95
2021/04/06 03:32:39;;;;;;;4.35;1.35;;;3.00;76.30;;;;;;4975959;28;20023;-95
2021/04/06 03:35:05;;;;;;;6.50;1.60;;;3.00;76.20;;;;;;4972103;28;20041;-95
2021/04/06 03:37:31;;;;;;;2.83;1.00;;;3.00;76.10;;;;;;4955750;28;20110;-94
2021/04/06 03:39:56;;;;;;;4.70;1.40;;;3.00;76.00;;;;;;4973801;28;20050;-95
2021/04/06 03:42:27;;;;;;;3.70;1.00;;;3.00;75.90;;;;;;4964113;28;20023;-94
2021/04/06 03:45:07;;;;;;;4.20;1.20;;;3.00;75.90;;;;;;4955175;28;20031;-96
2021/04/06 03:47:56;;;;;;;5.32;1.30;;;2.90;75.80;;;;;;4949544;28;20485;-93
2021/04/06 03:50:41;;;;;;;1.70;0.80;;;2.90;75.80;;;;;;4973963;28;20019;-93
2021/04/06 03:53:09;;;;;;;1.92;0.82;;;2.90;75.80;;;;;;4957085;28;20046;-94
2021/04/06 03:55:37;;;;;;;3.83;1.08;;;2.90;75.80;;;;;;4953801;29;20046;-94
2021/04/06 03:58:19;;;;;;;5.00;1.20;;;2.90;75.70;;;;;;4955006;29;20467;-94
2021/04/06 04:00:45;;;;;;;4.75;1.52;;;2.90;75.80;;;;;;4957150;28;20602;-93
2021/04/06 04:03:10;;;;;;;4.63;1.60;;;2.90;75.80;;;;;;4968558;28;20027;-94
2021/04/06 04:05:36;;;;;;;5.82;1.60;;;2.90;75.80;;;;;;4953412;28;20027;-94
2021/04/06 04:08:01;;;;;;;5.68;2.00;;;2.90;75.80;;;;;;4954800;28;20031;-93
2021/04/06 04:10:28;;;;;;;6.88;1.92;;;2.90;75.80;;;;;;4963251;28;20030;-89
2021/04/06 04:12:54;;;;;;;4.80;1.35;;;2.90;75.80;;;;;;4962572;28;20027;-92
2021/04/06 04:15:20;;;;;;;6.75;1.80;;;2.90;75.90;;;;;;4955304;29;20126;-93
2021/04/06 04:17:47;;;;;;;7.63;1.50;;;2.90;75.90;;;;;;4954930;28;20012;-93
2021/04/06 04:20:14;;;;;;;4.68;1.63;;;2.90;76.00;;;;;;4957781;28;20027;-93
2021/04/06 04:22:41;;;;;;;4.85;1.40;;;2.90;76.00;;;;;;4970402;28;20022;-93
2021/04/06 04:25:08;;;;;;;5.35;1.30;;;2.80;76.20;;;;;;4972425;28;20027;-93
2021/04/06 04:27:34;;;;;;;3.03;1.15;;;2.80;76.30;;;;;;4963188;28;20029;-90
2021/04/06 04:29:59;;;;;;;3.90;1.02;;;2.80;76.30;;;;;;4969613;28;20322;-93
2021/04/06 04:32:25;;;;;;;3.40;1.20;;;2.90;76.30;;;;;;4969764;28;20012;-95
2021/04/06 04:34:51;;;;;;;5.40;1.40;;;2.90;76.30;;;;;;4966011;28;20038;-96
2021/04/06 04:37:16;;;;;;;4.43;1.40;;;2.90;76.30;;;;;;4974009;28;20081;-95
2021/04/06 04:39:42;;;;;;;4.00;1.25;;;2.90;76.30;;;;;;4961653;28;20059;-96
2021/04/06 04:42:08;;;;;;;3.70;1.10;;;2.90;76.30;;;;;;4963556;28;20098;-95
2021/04/06 04:44:34;;;;;;;5.68;1.40;;;2.90;76.30;;;;;;4953834;28;20082;-96
2021/04/06 04:46:59;;;;;;;3.33;1.13;;;3.00;76.40;;;;;;4957444;28;20023;-96
2021/04/06 04:49:25;;;;;;;3.38;1.10;;;2.90;76.30;;;;;;4969065;28;20027;-96
2021/04/06 04:51:51;;;;;;;3.25;1.10;;;2.90;77.00;;;;;;4967904;28;20019;-95
2021/04/06 04:54:17;;;;;;;4.57;1.27;;;2.90;76.30;;;;;;4981391;28;20481;-96
2021/04/06 04:56:42;;;;;;;5.10;1.42;;;2.80;76.30;;;;;;4976127;28;20023;-96
2021/04/06 04:59:08;;;;;;;3.50;1.23;;;2.80;76.50;;;;;;4976152;28;20011;-95
2021/04/06 05:01:40;;;;;;;6.75;1.10;;;2.80;76.50;;;;;;4983245;28;20035;-96
2021/04/06 05:04:29;;;;;;;4.78;1.35;;;2.80;76.50;;;;;;4988873;28;20027;-96
2021/04/06 05:06:54;;;;;;;3.90;1.30;;;2.90;76.50;;;;;;4984832;28;20121;-96
2021/04/06 05:09:20;;;;;;;4.22;1.00;;;3.00;76.40;;;;;;4981529;28;20023;-96
2021/04/06 05:11:46;;;;;;;3.83;1.02;;;3.00;76.20;;;;;;4980973;28;20050;-96
2021/04/06 05:14:11;;;;;;;4.00;1.00;;;3.00;76.10;;;;;;4981421;28;20105;-94
2021/04/06 05:16:37;;;;;;;3.83;1.10;;;3.10;76.00;;;;;;4974554;28;20504;-94
2021/04/06 05:19:02;;;;;;;2.90;1.05;;;3.10;76.00;;;;;;4978537;28;20042;-94
2021/04/06 05:21:28;;;;;;;2.08;0.90;;;3.10;76.00;;;;;;4978412;28;20018;-94
2021/04/06 05:23:54;;;;;;;3.53;1.00;;;3.10;76.00;;;;;;4978406;28;20030;-93
2021/04/06 05:26:20;;;;;;;4.07;1.15;;;3.10;75.90;;;;;;4973780;28;20505;-92
2021/04/06 05:28:45;;;;;;;2.47;1.05;;;3.20;76.00;;;;;;4976920;28;20170;-90
2021/04/06 05:31:11;;;;;;;2.35;1.05;;;3.10;75.90;;;;;;4977389;28;20019;-92
2021/04/06 05:33:40;;;;;;;3.15;1.27;;;3.10;75.90;;;;;;4974493;28;20027;-93
2021/04/06 05:36:09;;;;;;;2.00;0.80;;;3.20;75.80;;;;;;4990176;28;20025;-96
2021/04/06 05:38:35;;;;;;;5.18;1.20;;;3.20;75.70;;;;;;4995971;28;20025;-96
2021/04/06 05:46:13;;;;;;;5.38;1.70;;;3.40;75.60;;;;;;5624071;23;20050;-96
2021/04/06 05:48:39;;;;;;;5.80;1.40;;;3.60;75.20;;;;;;4973307;28;20019;-94
2021/04/06 05:51:05;;;;;;;4.07;1.20;;;3.80;74.60;;;;;;4974077;28;20062;-93
2021/04/06 05:53:31;;;;;;;4.00;1.30;;;4.00;74.10;;;;;;4978199;28;21032;-94
2021/04/06 05:56:00;;;;;;;3.67;1.30;;;4.60;73.50;;;;;;4978519;28;20418;-95
2021/04/06 05:58:26;;;;;;;3.28;1.30;;;5.60;71.90;;;;;;4982949;28;20058;-96
2021/04/06 06:00:52;;;;;;;4.90;1.58;;;6.70;69.10;;;;;;4984586;28;20035;-95
2021/04/06 06:03:17;;;;;;;5.32;1.73;;;7.70;66.40;;;;;;4979059;28;20035;-96
2021/04/06 06:05:44;;;;;;;2.50;1.20;;;8.50;64.10;;;;;;4974466;28;20113;-94
2021/04/06 06:08:16;;;;;;;4.97;1.50;;;9.10;62.50;;;;;;4971641;28;20563;-94
2021/04/06 06:10:42;;;;;;;4.83;1.30;;;9.50;60.40;;;;;;4970197;28;20490;-96
2021/04/06 06:13:23;;;;;;;3.70;1.17;;;9.80;59.70;;;;;;4970990;28;20045;-96
2021/04/06 06:16:08;;;;;;;5.40;1.38;;;9.70;58.60;;;;;;4969182;28;20039;-95
2021/04/06 06:18:56;;;;;;;4.95;1.25;;;8.80;59.60;;;;;;4971083;28;20014;-96
2021/04/06 06:21:23;;;;;;;5.03;1.20;;;8.30;61.10;;;;;;4971372;28;20020;-96
2021/04/06 06:23:52;;;;;;;5.68;1.20;;;8.50;62.00;;;;;;4972719;28;20046;-94
2021/04/06 06:26:19;;;;;;;5.90;1.50;;;9.60;60.60;;;;;;4986406;28;20031;-96
2021/04/06 06:29:05;;;;;;;3.90;1.25;;;10.40;58.20;;;;;;4984707;28;20039;-96
2021/04/06 06:31:41;;;;;;;4.05;1.13;;;10.60;56.70;;;;;;4982384;28;20114;-96
2021/04/06 06:34:30;;;;;;;4.95;1.42;;;11.00;56.70;;;;;;5087040;23;20051;-95
2021/04/06 06:37:17;;;;;;;4.93;1.63;;;11.60;54.20;;;;;;4951615;28;20423;-95
2021/04/06 06:39:54;;;;;;;4.70;1.48;;;12.30;52.80;;;;;;4933936;29;20035;-92
2021/04/06 06:42:37;;;;;;;2.55;1.10;;;12.80;51.60;;;;;;4934034;29;20028;-90
2021/04/06 06:45:05;;;;;;;4.03;1.42;;;13.30;50.90;;;;;;4936935;29;20039;-91
2021/04/06 06:47:31;;;;;;;7.15;1.73;;;13.20;51.00;;;;;;4932756;29;20042;-90
2021/04/06 06:50:12;;;;;;;5.13;1.55;;;13.30;49.50;;;;;;4932918;29;20040;-93
2021/04/06 06:52:38;;;;;;;3.95;1.20;;;13.00;49.70;;;;;;4936857;29;20042;-92
2021/04/06 06:55:18;;;;;;;4.15;1.23;;;12.70;50.30;;;;;;4932455;29;20043;-91
2021/04/06 06:57:44;;;;;;;3.75;1.23;;;12.10;51.20;;;;;;4933870;29;20086;-90
2021/04/06 07:00:15;;;;;;;4.28;1.60;;;11.00;52.60;;;;;;4929713;29;20039;-91
2021/04/06 07:02:42;;;;;;;4.50;1.50;;;10.60;53.30;;;;;;4934241;29;20039;-93
2021/04/06 07:05:23;;;;;;;4.60;1.20;;;10.20;54.10;;;;;;4934867;29;20027;-91
2021/04/06 07:08:06;;;;;;;4.10;1.63;;;10.50;54.90;;;;;;4936636;29;20036;-92
2021/04/06 07:10:42;;;;;;;;;;;11.00;52.60;;;;;;4932499;29;20020;-92
2021/04/06 07:13:18;;;;;;;3.60;1.08;;;9.90;53.80;;;;;;4930725;29;20449;-91
2021/04/06 07:15:44;;;;;;;2.38;1.08;;;8.90;56.80;;;;;;4932544;29;20035;-91
2021/04/06 07:18:17;;;;;;;3.85;1.10;;;8.10;58.10;;;;;;4931937;29;20043;-90
2021/04/06 07:20:55;;;;;;;4.13;1.35;;;8.00;59.40;;;;;;4932167;29;20028;-89
2021/04/06 07:23:30;;;;;;;3.03;1.10;;;8.10;58.90;;;;;;4931994;29;20063;-90
2021/04/06 07:25:56;;;;;;;5.10;1.27;;;8.80;58.80;;;;;;4930394;29;20033;-88
2021/04/06 07:28:23;;;;;;;4.32;1.20;;;10.50;56.10;;;;;;4926450;29;21225;-89
2021/04/06 07:30:50;;;;;;;3.88;1.20;;;11.80;52.60;;;;;;4930351;29;20054;-89
2021/04/06 07:33:17;;;;;;;3.15;1.30;;;12.90;50.20;;;;;;4929531;29;20036;-88
2021/04/06 07:35:43;;;;;;;4.30;1.10;;;13.20;48.20;;;;;;4922363;29;20031;-87
2021/04/06 07:38:09;;;;;;;3.20;1.15;;;13.60;47.60;;;;;;4929711;29;20074;-89
2021/04/06 07:40:35;;;;;;;4.55;1.17;;;14.50;46.50;;;;;;4930981;29;20040;-89
2021/04/06 07:43:05;;;;;;;2.42;1.20;;;15.00;45.10;;;;;;4928649;29;20023;-88
2021/04/06 07:45:30;;;;;;;1.95;0.90;;;15.40;44.80;;;;;;4930343;29;20073;-88
2021/04/06 07:47:57;;;;;;;4.25;1.13;;;14.50;44.50;;;;;;4930995;29;20503;-88
2021/04/06 07:50:43;;;;;;;3.17;1.33;;;12.50;46.60;;;;;;4929361;29;20411;-88
2021/04/06 07:53:18;;;;;;;3.22;1.45;;;10.90;49.20;;;;;;4927610;29;20024;-88
2021/04/06 07:55:44;;;;;;;3.58;1.33;;;9.80;51.50;;;;;;4931088;29;20102;-89
2021/04/06 07:58:09;;;;;;;4.15;1.33;;;9.90;52.20;;;;;;4930385;29;20102;-89
2021/04/06 08:00:48;;;;;;;4.07;1.23;;;10.10;51.30;;;;;;4931627;29;20044;-90
2021/04/06 08:03:49;;;;;;;3.28;1.17;;;9.50;51.90;;;;;;4929041;29;20035;-89
2021/04/06 08:06:25;;;;;;;2.47;1.00;;;8.40;53.80;;;;;;4932976;29;20313;-87
2021/04/06 08:08:52;;;;;;;3.63;1.10;;;7.80;55.60;;;;;;4929079;29;20023;-88
2021/04/06 08:11:18;;;;;;;3.58;1.20;;;7.70;56.40;;;;;;4942559;29;20130;-88
2021/04/06 08:13:45;;;;;;;3.90;1.27;;;7.50;56.50;;;;;;4936438;29;20503;-89
2021/04/06 08:16:18;;;;;;;5.07;1.35;;;7.40;56.60;;;;;;4950147;28;20371;-88
2021/04/06 08:18:54;;;;;;;4.72;1.20;;;7.50;56.60;;;;;;4933615;29;20471;-87
2021/04/06 08:21:24;;;;;;;4.70;1.23;;;7.60;57.10;;;;;;4925604;29;20102;-87
2021/04/06 08:23:51;;;;;;;3.33;1.15;;;7.70;56.40;;;;;;4929171;29;20036;-88
2021/04/06 08:26:30;;;;;;;2.55;1.10;;;7.70;56.00;;;;;;4928959;29;20035;-87
2021/04/06 08:29:19;;;;;;;3.22;1.10;;;7.70;56.40;;;;;;4928696;29;20031;-87
2021/04/06 08:31:45;;;;;;;4.88;1.23;;;7.50;56.80;;;;;;4925865;29;20073;-87
2021/04/06 08:34:28;;;;;;;2.50;1.10;;;7.40;57.30;;;;;;4928828;29;20078;-88
2021/04/06 08:37:14;;;;;;;3.65;1.02;;;7.10;57.70;;;;;;4930751;29;20127;-89
2021/04/06 08:39:40;;;;;;;3.05;1.17;;;6.70;58.60;;;;;;4932071;29;20023;-89
2021/04/06 08:42:08;;;;;;;2.65;1.10;;;6.50;59.30;;;;;;4930365;29;20483;-88
2021/04/06 08:44:35;;;;;;;3.05;0.98;;;6.40;59.70;;;;;;4931420;29;20078;-89
2021/04/06 08:47:02;;;;;;;1.98;0.77;;;6.40;60.10;;;;;;4928610;29;20430;-89
2021/04/06 08:49:28;;;;;;;2.35;0.93;;;6.50;60.10;;;;;;4929955;29;20038;-92
2021/04/06 08:51:56;;;;;;;1.50;0.88;;;6.60;60.00;;;;;;4937205;29;20058;-89
2021/04/06 08:54:27;;;;;;;1.42;0.70;;;6.60;60.10;;;;;;4933964;29;20060;-89
2021/04/06 08:56:56;;;;;;;3.72;1.02;;;6.70;60.10;;;;;;4935341;28;20110;-90
2021/04/06 08:59:32;;;;;;;3.13;1.02;;;6.90;60.00;;;;;;4934630;29;20027;-89
2021/04/06 09:02:04;;;;;;;3.08;1.45;;;6.80;59.30;;;;;;4933363;29;20028;-89
2021/04/06 09:04:33;;;;;;;2.25;1.02;;;6.70;59.50;;;;;;4940175;29;20115;-89
2021/04/06 09:06:59;;;;;;;2.53;0.85;;;6.50;59.80;;;;;;4935341;29;20175;-89
2021/04/06 09:09:26;;;;;;;2.17;0.82;;;6.40;60.20;;;;;;4935190;29;20382;-90
2021/04/06 09:11:54;;;;;;;3.63;1.08;;;6.40;60.50;;;;;;4951990;28;20028;-91
2021/04/06 09:14:20;;;;;;;1.77;0.80;;;6.40;60.80;;;;;;4939174;29;20043;-90
2021/04/06 09:16:46;;;;;;;2.25;0.90;;;6.40;60.90;;;;;;4941026;29;20031;-92
2021/04/06 09:19:14;;;;;;;2.30;1.05;;;6.30;61.10;;;;;;4944465;29;20045;-89
2021/04/06 09:21:52;;;;;;;2.22;1.00;;;6.30;61.20;;;;;;4939649;29;20070;-87
2021/04/06 09:24:18;;;;;;;3.47;0.98;;;6.30;61.00;;;;;;4933823;29;20028;-87
2021/04/06 09:26:45;;;;;;;3.13;1.08;;;6.20;61.20;;;;;;4933753;29;20040;-87
2021/04/06 09:29:22;;;;;;;2.60;0.80;;;6.20;61.00;;;;;;4933057;29;20091;-87
2021/04/06 09:31:52;;;;;;;2.72;0.90;;;6.30;61.30;;;;;;4930335;29;20063;-87
2021/04/06 09:34:21;;;;;;;2.55;1.00;;;6.40;60.90;;;;;;4931569;29;20039;-88
2021/04/06 09:36:56;;;;;;;2.55;1.08;;;6.60;60.60;;;;;;4932946;29;20556;-87
2021/04/06 09:39:23;;;;;;;1.70;0.90;;;6.60;60.70;;;;;;4933727;29;20123;-90
2021/04/06 09:41:49;;;;;;;1.75;0.70;;;6.70;59.80;;;;;;4935675;29;20031;-89
2021/04/06 09:44:18;;;;;;;4.03;1.20;;;6.90;59.80;;;;;;4938118;29;20035;-90
2021/04/06 09:46:44;;;;;;;5.30;1.30;;;6.90;59.20;;;;;;4933129;29;20028;-90
2021/04/06 09:49:12;;;;;;;2.40;1.05;;;6.80;58.60;;;;;;4935283;29;20107;-89
2021/04/06 09:51:43;;;;;;;2.63;0.95;;;6.70;59.00;;;;;;4950899;28;20028;-89
2021/04/06 09:54:10;;;;;;;0.93;0.80;;;6.70;58.90;;;;;;4936336;29;20043;-89
2021/04/06 09:56:36;;;;;;;2.00;0.77;;;6.80;58.90;;;;;;4938022;29;20450;-88
2021/04/06 09:59:04;;;;;;;3.03;0.90;;;6.90;58.60;;;;;;4933859;29;20072;-89
2021/04/06 10:01:30;;;;;;;2.83;0.98;;;6.90;58.50;;;;;;4931962;29;20032;-89
2021/04/06 10:03:58;;;;;;;1.02;0.60;;;6.90;58.00;;;;;;4936802;29;20028;-92
2021/04/06 10:06:44;;;;;;;1.63;0.88;;;7.00;58.10;;;;;;4930358;29;20494;-89
2021/04/06 10:09:25;;;;;;;0.93;0.63;;;7.00;58.00;;;;;;4937181;28;20031;-90
2021/04/06 10:11:53;;;;;;;3.42;0.90;;;7.00;58.20;;;;;;4932037;29;20039;-91
2021/04/06 10:14:20;;;;;;;1.70;0.93;;;7.10;57.90;;;;;;4934975;28;20039;-91
2021/04/06 10:16:54;;;;;;;2.63;1.08;;;7.10;57.80;;;;;;4943910;29;20536;-91
2021/04/06 10:19:23;;;;;;;3.08;0.98;;;7.10;57.80;;;;;;4936553;29;20028;-96
2021/04/06 10:21:59;;;;;;;1.73;0.90;;;7.30;58.10;;;;;;4934653;29;20045;-93
2021/04/06 10:24:27;;;;;;;1.88;0.90;;;7.50;57.70;;;;;;4935274;29;20039;-91
2021/04/06 10:27:06;;;;;;;1.98;0.73;;;7.70;57.50;;;;;;4936004;29;20027;-92
2021/04/06 10:29:32;;;;;;;2.47;0.93;;;7.90;57.30;;;;;;4934802;29;20035;-92
2021/04/06 10:32:02;;;;;;;4.05;1.10;;;8.00;56.90;;;;;;4934848;29;20033;-90
2021/04/06 10:34:29;;;;;;;2.15;0.98;;;8.10;57.00;;;;;;4935115;29;20031;-89
2021/04/06 10:37:08;;;;;;;3.03;1.17;;;8.10;56.50;;;;;;4934761;29;20031;-89
2021/04/06 10:39:43;;;;;;;4.57;1.40;;;8.00;55.90;;;;;;4934583;29;20044;-90
2021/04/06 10:42:13;;;;;;;4.07;1.17;;;7.80;54.90;;;;;;4928922;29;20028;-88
2021/04/06 10:44:41;;;;;;;2.65;0.98;;;7.90;54.80;;;;;;4933344;29;20034;-89
2021/04/06 10:47:07;;;;;;;2.88;1.00;;;7.90;54.80;;;;;;4933117;29;20063;-90
2021/04/06 10:49:33;;;;;;;2.58;1.20;;;8.10;54.80;;;;;;4932716;29;20110;-91
2021/04/06 10:52:01;;;;;;;2.20;0.90;;;8.00;53.90;;;;;;4933946;29;20035;-92
2021/04/06 10:54:27;;;;;;;5.60;1.40;;;7.80;54.80;;;;;;4934308;29;20296;-90
2021/04/06 10:56:55;;;;;;;2.92;0.90;;;7.50;55.90;;;;;;4933410;28;20102;-90
2021/04/06 10:59:34;;;;;;;3.00;1.30;;;7.00;57.10;;;;;;4930525;29;20043;-90
2021/04/06 11:02:01;;;;;;;2.72;0.90;;;6.60;58.50;;;;;;4931399;29;20062;-90
2021/04/06 11:04:29;;;;;;;2.63;1.00;;;6.40;59.40;;;;;;4933568;29;20035;-91
2021/04/06 11:07:00;;;;;;;3.55;1.05;;;6.30;60.40;;;;;;4934633;29;20042;-92
2021/04/06 11:09:33;;;;;;;2.93;1.13;;;6.20;60.10;;;;;;4933547;29;20050;-91
2021/04/06 11:11:59;;;;;;;3.95;1.10;;;6.40;60.00;;;;;;4933549;28;20099;-93
2021/04/06 11:14:26;;;;;;;3.22;1.10;;;6.40;59.90;;;;;;4936540;29;20208;-92
2021/04/06 11:16:53;;;;;;;3.92;1.27;;;6.50;59.00;;;;;;4932804;29;20038;-90
2021/04/06 11:19:28;;;;;;;2.50;1.08;;;6.60;58.70;;;;;;4934052;29;20019;-90
2021/04/06 11:22:20;;;;;;;3.35;1.15;;;6.70;58.50;;;;;;4930844;29;20035;-91
2021/04/06 11:24:49;;;;;;;3.42;1.48;;;7.00;58.30;;;;;;4934449;29;20103;-91
2021/04/06 11:27:17;;;;;;;3.53;1.08;;;7.40;58.00;;;;;;4932596;28;20043;-91
2021/04/06 11:29:44;;;;;;;2.90;1.02;;;7.60;57.70;;;;;;4935404;29;20031;-91
2021/04/06 11:32:13;;;;;;;3.20;0.85;;;7.60;57.20;;;;;;4936227;29;20371;-91
2021/04/06 11:34:39;;;;;;;2.45;1.02;;;7.70;56.80;;;;;;4935548;29;20035;-92
2021/04/06 11:37:07;;;;;;;3.55;1.30;;;7.80;56.80;;;;;;4934703;29;20491;-91
2021/04/06 11:39:36;;;;;;;1.50;0.80;;;7.60;57.10;;;;;;4932555;29;20027;-88
2021/04/06 11:42:03;;;;;;;1.90;0.80;;;7.30;58.00;;;;;;4933214;29;20031;-91
2021/04/06 11:44:29;;;;;;;1.60;0.60;;;7.10;58.70;;;;;;4935990;29;20445;-90
2021/04/06 11:46:54;;;;;;;2.05;0.80;;;6.70;59.30;;;;;;4931965;29;20107;-91
2021/04/06 11:49:24;;;;;;;1.33;0.70;;;6.40;60.10;;;;;;4931987;29;20031;-91
2021/04/06 11:51:50;;;;;;;2.08;0.77;;;6.10;60.10;;;;;;4933250;29;20027;-89
2021/04/06 11:54:17;;;;;;;0.88;0.60;;;5.80;60.50;;;;;;4935171;29;20042;-90
2021/04/06 11:56:42;;;;;;;1.63;0.75;;;5.70;60.90;;;;;;4932452;29;20027;-91
2021/04/06 11:59:08;;;;;;;0.50;0.50;;;5.60;61.20;;;;;;4930317;28;20443;-89
2021/04/06 12:01:34;;;;;;;0.90;0.57;;;5.50;61.30;;;;;;4937810;29;20648;-90
2021/04/06 12:04:01;;;;;;;1.15;0.60;;;5.50;61.30;;;;;;4931545;29;20488;-90
2021/04/06 12:06:27;;;;;;;1.17;0.70;;;5.40;61.40;;;;;;4931815;29;20027;-90
2021/04/06 12:08:57;;;;;;;1.23;0.50;;;5.60;61.40;;;;;;4938339;28;20024;-90
2021/04/06 12:11:23;;;;;;;0.85;0.70;;;5.80;61.20;;;;;;4938395;29;20028;-91
2021/04/06 12:13:49;;;;;;;1.25;0.70;;;6.10;61.00;;;;;;4934038;29;20032;-90
2021/04/06 12:16:15;;;;;;;0.70;0.50;;;6.30;60.40;;;;;;4942414;29;20508;-90
2021/04/06 12:18:40;;;;;;;2.75;0.80;;;6.50;60.30;;;;;;4927031;29;20035;-90
2021/04/06 12:21:09;;;;;;;1.85;0.77;;;6.80;60.00;;;;;;4919687;29;20024;-91
2021/04/06 12:23:39;;;;;;;1.10;0.70;;;6.90;59.50;;;;;;4933302;29;20027;-89
2021/04/06 12:26:06;;;;;;;1.75;0.70;;;7.10;59.20;;;;;;4923490;29;20024;-89
2021/04/06 12:28:32;;;;;;;2.63;1.10;;;7.30;59.00;;;;;;4935822;29;20028;-90
2021/04/06 12:30:58;;;;;;;2.13;0.88;;;7.50;58.80;;;;;;4943203;29;20028;-90
2021/04/06 12:33:24;;;;;;;2.13;0.90;;;7.70;58.80;;;;;;4941875;28;20035;-89
2021/04/06 12:35:49;;;;;;;2.08;1.15;;;7.90;58.40;;;;;;4933781;29;20119;-92
2021/04/06 12:38:15;;;;;;;2.50;1.10;;;8.00;57.60;;;;;;4937679;29;20106;-91
2021/04/06 12:40:40;;;;;;;3.50;1.08;;;8.10;57.50;;;;;;4939093;29;20031;-92
2021/04/06 12:43:06;;;;;;;3.17;0.90;;;8.20;57.50;;;;;;4940417;29;20035;-91
2021/04/06 12:45:32;;;;;;;3.58;1.30;;;8.30;57.10;;;;;;4940931;29;20027;-90
2021/04/06 12:47:57;;;;;;;2.50;1.02;;;8.30;57.10;;;;;;4935127;29;20039;-89
2021/04/06 12:50:23;;;;;;;2.42;0.85;;;8.20;57.20;;;;;;4936453;29;20502;-90
2021/04/06 12:52:50;;;;;;;1.98;1.00;;;8.00;58.00;;;;;;4936968;29;20058;-89
2021/04/06 12:55:16;;;;;;;1.05;0.80;;;7.70;58.90;;;;;;4937986;29;20031;-89
2021/04/06 12:57:42;;;;;;;2.17;0.75;;;7.30;59.10;;;;;;4937740;29;20042;-88
2021/04/06 13:00:09;;;;;;;2.00;0.80;;;6.90;59.30;;;;;;4935939;28;20146;-89
2021/04/06 13:02:35;;;;;;;3.67;1.10;;;6.50;59.30;;;;;;4935198;28;20035;-89
2021/04/06 13:05:02;;;;;;;1.58;0.70;;;6.30;59.70;;;;;;4939773;28;20410;-86
2021/04/06 13:07:27;;;;;;;1.65;0.70;;;6.20;59.90;;;;;;4939684;29;20035;-90
2021/04/06 13:09:53;;;;;;;1.17;0.60;;;6.00;59.90;;;;;;4943390;28;20038;-88
2021/04/06 13:12:20;;;;;;;0.60;0.57;;;6.00;59.80;;;;;;4939064;29;20034;-87
2021/04/06 13:14:47;;;;;;;1.38;0.60;;;6.00;59.80;;;;;;4941095;29;20114;-89